createdAt,value
2018-02-12T00:01:39.094Z,13.00
2018-02-12T00:04:06.766Z,12.97
2018-02-12T00:06:34.312Z,12.27
2018-02-12T00:09:01.866Z,12.10
2018-02-12T00:11:29.589Z,12.07
2018-02-12T00:13:57.133Z,12.40
2018-02-12T00:16:24.666Z,12.10
2018-02-12T00:18:53.391Z,13.37
2018-02-12T00:21:20.943Z,12.10
2018-02-12T00:23:48.481Z,14.00
2018-02-12T00:26:16.228Z,20.10
2018-02-12T00:28:43.785Z,13.77
2018-02-12T00:31:11.327Z,10.90
2018-02-12T00:33:39.062Z,11.90
2018-02-12T00:36:06.607Z,9.27
2018-02-12T00:38:34.147Z,12.30
2018-02-12T00:41:01.734Z,12.33
2018-02-12T00:43:29.286Z,11.23
2018-02-12T00:45:56.828Z,12.67
2018-02-12T00:48:24.498Z,11.20
2018-02-12T00:50:52.046Z,12.77
2018-02-12T00:53:19.586Z,11.83
2018-02-12T00:55:47.192Z,11.67
2018-02-12T00:58:14.730Z,10.33
2018-02-12T01:00:42.266Z,9.53
2018-02-12T01:03:09.845Z,14.10
2018-02-12T01:05:37.391Z,11.57
2018-02-12T01:08:04.946Z,14.13
2018-02-12T01:10:32.506Z,15.23
2018-02-12T01:13:00.053Z,13.63
2018-02-12T01:15:27.642Z,12.77
2018-02-12T01:17:55.178Z,13.13
2018-02-12T01:20:22.726Z,14.10
2018-02-12T01:22:51.049Z,9.43
2018-02-12T01:25:18.592Z,14.50
2018-02-12T01:27:46.153Z,13.10
2018-02-12T01:30:13.745Z,11.77
2018-02-12T01:32:41.299Z,12.60
2018-02-12T01:35:08.840Z,12.90
2018-02-12T01:37:36.649Z,12.60
2018-02-12T01:40:04.197Z,12.87
2018-02-12T01:42:31.738Z,12.80
2018-02-12T01:44:59.411Z,13.77
2018-02-12T01:47:26.953Z,14.37
2018-02-12T01:50:06.471Z,14.77
2018-02-12T01:52:34.007Z,12.73
2018-02-12T01:55:01.576Z,12.77
2018-02-12T01:57:29.312Z,12.43
2018-02-12T01:59:56.847Z,13.13
2018-02-12T02:02:24.412Z,13.63
2018-02-12T02:04:52.148Z,13.77
2018-02-12T02:07:19.699Z,12.70
2018-02-12T02:09:47.248Z,16.07
2018-02-12T02:12:14.930Z,14.80
2018-02-12T02:14:42.482Z,12.77
2018-02-12T02:17:10.094Z,14.63
2018-02-12T02:19:37.967Z,14.03
2018-02-12T02:22:05.514Z,16.50
2018-02-12T02:24:33.054Z,13.90
2018-02-12T02:27:00.625Z,18.00
2018-02-12T02:29:28.176Z,15.40
2018-02-12T02:31:55.721Z,15.50
2018-02-12T02:34:23.463Z,14.27
2018-02-12T02:36:51.023Z,13.83
2018-02-12T02:39:18.598Z,16.93
2018-02-12T02:41:46.469Z,17.57
2018-02-12T02:44:14.024Z,13.77
2018-02-12T02:46:41.583Z,14.87
2018-02-12T02:49:09.453Z,19.50
2018-02-12T02:51:37.009Z,19.70
2018-02-12T02:54:04.572Z,21.50
2018-02-12T02:56:32.149Z,30.37
2018-02-12T02:58:59.696Z,34.60
2018-02-12T03:01:27.242Z,29.77
2018-02-12T03:03:54.822Z,27.40
2018-02-12T03:06:22.373Z,20.90
2018-02-12T03:08:49.918Z,19.13
2018-02-12T03:11:17.505Z,23.43
2018-02-12T03:13:45.059Z,21.40
2018-02-12T03:16:12.606Z,20.07
2018-02-12T03:18:40.342Z,22.10
2018-02-12T03:21:07.906Z,20.07
2018-02-12T03:23:35.483Z,18.50
2018-02-12T03:26:03.062Z,18.93
2018-02-12T03:28:30.619Z,19.63
2018-02-12T03:30:58.176Z,20.93
2018-02-12T03:33:25.865Z,17.87
2018-02-12T03:35:53.407Z,18.03
2018-02-12T03:38:20.957Z,16.73
2018-02-12T03:40:48.529Z,17.00
2018-02-12T03:43:16.073Z,18.77
2018-02-12T03:45:48.080Z,16.20
2018-02-12T03:48:15.774Z,16.07
2018-02-12T03:50:43.315Z,19.30
2018-02-12T03:53:10.863Z,17.13
2018-02-12T03:55:38.456Z,17.47
2018-02-12T03:58:06.005Z,19.17
2018-02-12T04:00:33.554Z,18.40
2018-02-12T04:03:01.246Z,17.60
2018-02-12T04:05:28.803Z,16.00
2018-02-12T04:07:56.377Z,22.03
2018-02-12T04:10:23.923Z,22.40
2018-02-12T04:12:51.479Z,25.70
2018-02-12T04:15:19.143Z,20.87
2018-02-12T04:17:46.691Z,22.80
2018-02-12T04:20:14.240Z,21.30
2018-02-12T04:22:41.945Z,21.77
2018-02-12T04:25:09.493Z,18.00
2018-02-12T04:27:37.043Z,16.83
2018-02-12T04:30:04.664Z,20.77
2018-02-12T04:32:32.216Z,17.73
2018-02-12T04:34:59.757Z,21.07
2018-02-12T04:37:27.704Z,18.77
2018-02-12T04:39:55.256Z,21.33
2018-02-12T04:42:22.798Z,23.50
2018-02-12T04:44:50.388Z,23.97
2018-02-12T04:47:17.943Z,22.47
2018-02-12T04:49:45.482Z,20.57
2018-02-12T04:52:13.102Z,19.77
2018-02-12T04:54:40.644Z,24.00
2018-02-12T04:57:08.192Z,18.03
2018-02-12T04:59:36.058Z,21.23
2018-02-12T05:02:03.607Z,21.83
2018-02-12T05:04:31.173Z,24.20
2018-02-12T05:06:58.859Z,23.17
2018-02-12T05:09:26.403Z,28.90
2018-02-12T05:11:53.957Z,31.97
2018-02-12T05:14:21.574Z,68.90
2018-02-12T05:16:49.132Z,40.63
2018-02-12T05:19:16.689Z,55.63
2018-02-12T05:21:44.377Z,63.73
2018-02-12T05:24:11.950Z,84.93
2018-02-12T05:26:39.514Z,142.13
2018-02-12T05:29:07.113Z,80.00
2018-02-12T05:31:34.655Z,54.77
2018-02-12T05:34:02.203Z,46.33
2018-02-12T05:36:29.922Z,37.80
2018-02-12T05:38:57.562Z,38.67
2018-02-12T05:41:25.112Z,35.13
2018-02-12T05:43:52.710Z,31.00
2018-02-12T05:46:20.268Z,25.87
2018-02-12T05:48:47.814Z,27.77
2018-02-12T05:51:15.508Z,22.67
2018-02-12T05:53:43.050Z,26.07
2018-02-12T05:56:10.638Z,177.87
2018-02-12T05:58:38.210Z,34.47
2018-02-12T06:01:05.771Z,25.67
2018-02-12T06:03:33.310Z,18.93
2018-02-12T06:06:00.898Z,23.00
2018-02-12T06:08:28.510Z,26.83
2018-02-12T06:10:56.062Z,21.40
2018-02-12T06:13:23.747Z,19.60
2018-02-12T06:15:51.308Z,24.87
2018-02-12T06:18:18.855Z,23.67
2018-02-12T06:20:46.597Z,23.07
2018-02-12T06:23:14.154Z,22.97
2018-02-12T06:25:41.704Z,21.70
2018-02-12T06:28:09.581Z,20.07
2018-02-12T06:30:37.125Z,23.67
2018-02-12T06:33:04.669Z,25.23
2018-02-12T06:35:32.245Z,24.40
2018-02-12T06:37:59.792Z,20.90
2018-02-12T06:40:27.340Z,22.30
2018-02-12T06:42:55.022Z,24.40
2018-02-12T06:45:22.580Z,21.20
2018-02-12T06:47:50.133Z,22.40
2018-02-12T06:50:17.854Z,23.20
2018-02-12T06:52:45.405Z,25.03
2018-02-12T06:55:12.966Z,27.07
2018-02-12T06:57:40.566Z,27.10
2018-02-12T07:00:09.131Z,28.53
2018-02-12T07:02:36.683Z,32.80
2018-02-12T07:05:04.367Z,31.83
2018-02-12T07:07:31.918Z,28.57
2018-02-12T07:09:59.468Z,27.37
2018-02-12T07:12:27.153Z,25.60
2018-02-12T07:14:54.707Z,28.10
2018-02-12T07:17:22.255Z,32.27
2018-02-12T07:19:49.833Z,28.07
2018-02-12T07:22:17.393Z,25.47
2018-02-12T07:24:44.941Z,24.33
2018-02-12T07:27:12.693Z,26.23
2018-02-12T07:29:40.252Z,23.53
2018-02-12T07:32:07.807Z,22.20
2018-02-12T07:34:35.379Z,29.73
2018-02-12T07:37:02.968Z,30.37
2018-02-12T07:39:30.523Z,30.90
2018-02-12T07:41:58.396Z,30.23
2018-02-12T07:44:25.949Z,27.47
2018-02-12T07:46:54.127Z,28.63
2018-02-12T07:49:21.914Z,22.33
2018-02-12T07:51:49.471Z,24.40
2018-02-12T07:54:17.016Z,24.47
2018-02-12T07:56:44.710Z,24.20
2018-02-12T07:59:12.273Z,24.83
2018-02-12T08:01:39.825Z,21.03
2018-02-12T08:04:07.418Z,13.60
2018-02-12T08:06:34.965Z,17.67
2018-02-12T08:09:02.515Z,19.43
2018-02-12T08:11:30.089Z,18.33
2018-02-12T08:13:57.634Z,18.70
2018-02-12T08:16:25.211Z,19.87
2018-02-12T08:18:52.765Z,20.60
2018-02-12T08:21:20.311Z,23.40
2018-02-12T08:23:47.892Z,23.57
2018-02-12T08:26:15.445Z,21.60
2018-02-12T08:28:43.000Z,20.70
2018-02-12T08:31:10.586Z,22.47
2018-02-12T08:33:38.142Z,28.23
2018-02-12T08:36:05.697Z,35.37
2018-02-12T08:38:33.432Z,29.57
2018-02-12T08:41:01.021Z,23.23
2018-02-12T08:43:28.569Z,26.20
2018-02-12T08:45:56.178Z,26.70
2018-02-12T08:48:23.726Z,28.87
2018-02-12T08:50:51.294Z,21.60
2018-02-12T08:53:18.875Z,24.67
2018-02-12T08:55:46.430Z,30.37
2018-02-12T08:58:13.982Z,28.77
2018-02-12T09:00:41.580Z,33.20
2018-02-12T09:03:09.140Z,30.57
2018-02-12T09:05:36.689Z,29.23
2018-02-12T09:08:04.399Z,32.10
2018-02-12T09:10:31.943Z,28.33
2018-02-12T09:12:59.499Z,29.23
2018-02-12T09:15:27.246Z,33.53
2018-02-12T09:17:54.827Z,31.70
2018-02-12T09:20:22.376Z,33.20
2018-02-12T09:22:50.059Z,31.80
2018-02-12T09:25:17.619Z,34.20
2018-02-12T09:27:45.167Z,34.87
2018-02-12T09:30:12.749Z,45.40
2018-02-12T09:32:40.303Z,40.90
2018-02-12T09:35:07.869Z,40.87
2018-02-12T09:37:35.551Z,48.00
2018-02-12T09:40:03.136Z,38.13
2018-02-12T09:42:30.694Z,34.03
2018-02-12T09:44:58.386Z,37.60
2018-02-12T09:47:25.938Z,39.30
2018-02-12T09:49:53.497Z,38.07
2018-02-12T09:52:21.180Z,41.33
2018-02-12T09:54:48.728Z,42.43
2018-02-12T09:57:16.270Z,40.77
2018-02-12T09:59:43.967Z,34.83
2018-02-12T10:02:12.862Z,38.13
2018-02-12T10:04:40.406Z,37.67
2018-02-12T10:07:07.985Z,67.07
2018-02-12T10:09:35.524Z,41.40
2018-02-12T10:12:03.075Z,44.43
2018-02-12T10:14:30.668Z,33.33
2018-02-12T10:16:58.239Z,39.43
2018-02-12T10:19:25.792Z,37.50
2018-02-12T10:21:53.395Z,41.13
2018-02-12T10:24:20.942Z,37.47
2018-02-12T10:26:48.518Z,41.33
2018-02-12T10:29:16.736Z,47.23
2018-02-12T10:31:44.285Z,148.77
2018-02-12T10:34:11.830Z,46.40
2018-02-12T10:36:39.398Z,35.43
2018-02-12T10:39:06.972Z,45.70
2018-02-12T10:41:34.523Z,40.97
2018-02-12T10:44:02.288Z,46.13
2018-02-12T10:46:29.868Z,45.13
2018-02-12T10:48:57.441Z,39.47
2018-02-12T10:51:25.172Z,46.00
2018-02-12T10:53:52.713Z,40.83
2018-02-12T10:56:20.275Z,45.10
2018-02-12T10:58:47.900Z,41.73
2018-02-12T11:01:15.465Z,48.27
2018-02-12T11:03:43.028Z,44.20
2018-02-12T11:06:10.606Z,43.37
2018-02-12T11:08:38.182Z,44.67
2018-02-12T11:11:05.730Z,47.87
2018-02-12T11:13:33.408Z,54.87
2018-02-12T11:16:00.971Z,57.57
2018-02-12T11:18:28.513Z,59.27
2018-02-12T11:20:56.095Z,58.70
2018-02-12T11:23:23.652Z,49.10
2018-02-12T11:25:51.204Z,59.07
2018-02-12T11:28:18.796Z,60.33
2018-02-12T11:30:46.369Z,78.93
2018-02-12T11:33:13.931Z,116.70
2018-02-12T11:35:41.507Z,72.17
2018-02-12T11:38:09.073Z,67.60
2018-02-12T11:40:36.630Z,62.33
2018-02-12T11:43:04.361Z,67.37
2018-02-12T11:45:31.915Z,66.03
2018-02-12T11:47:59.461Z,79.30
2018-02-12T11:50:27.154Z,70.67
2018-02-12T11:52:56.459Z,63.30
2018-02-12T11:55:24.006Z,76.17
2018-02-12T11:57:51.712Z,67.03
2018-02-12T12:00:19.278Z,66.67
2018-02-12T12:02:46.826Z,69.83
2018-02-12T12:05:14.561Z,74.73
2018-02-12T12:07:42.104Z,65.57
2018-02-12T12:10:09.660Z,60.77
2018-02-12T12:12:37.348Z,56.80
2018-02-12T12:15:04.921Z,57.93
2018-02-12T12:17:32.478Z,53.07
2018-02-12T12:20:00.231Z,54.73
2018-02-12T12:22:27.789Z,55.73
2018-02-12T12:24:55.337Z,62.00
2018-02-12T12:27:22.923Z,55.57
2018-02-12T12:29:50.478Z,59.80
2018-02-12T12:32:18.038Z,62.23
2018-02-12T12:34:45.775Z,70.37
2018-02-12T12:37:13.362Z,98.63
2018-02-12T12:39:40.917Z,116.20
2018-02-12T12:42:08.788Z,67.17
2018-02-12T12:44:36.332Z,67.90
2018-02-12T12:47:03.898Z,73.13
2018-02-12T12:49:31.484Z,76.03
2018-02-12T12:51:59.036Z,60.13
2018-02-12T12:54:26.588Z,66.97
2018-02-12T12:56:54.464Z,77.80
2018-02-12T12:59:22.004Z,66.20
2018-02-12T13:01:49.555Z,71.57
2018-02-12T13:04:17.301Z,71.37
2018-02-12T13:06:44.853Z,73.70
2018-02-12T13:09:12.416Z,144.57
2018-02-12T13:11:39.982Z,97.87
2018-02-12T13:14:07.541Z,78.70
2018-02-12T13:16:35.239Z,79.17
2018-02-12T13:19:02.787Z,192.73
2018-02-12T13:21:30.369Z,124.53
2018-02-12T13:23:58.020Z,90.77
2018-02-12T13:26:25.585Z,92.43
2018-02-12T13:28:53.148Z,72.87
2018-02-12T13:31:20.890Z,84.47
2018-02-12T13:33:48.439Z,79.33
2018-02-12T13:36:16.003Z,100.80
2018-02-12T13:38:43.583Z,80.47
2018-02-12T13:41:11.132Z,87.83
2018-02-12T13:43:38.728Z,421.60
2018-02-12T13:46:06.422Z,105.17
2018-02-12T13:48:33.979Z,109.90
2018-02-12T13:51:01.544Z,83.63
2018-02-12T13:53:29.134Z,109.73
2018-02-12T13:55:56.691Z,102.20
2018-02-12T13:58:24.264Z,94.37
2018-02-12T14:00:52.078Z,100.57
2018-02-12T14:03:19.638Z,156.73
2018-02-12T14:05:47.195Z,98.13
2018-02-12T14:08:15.416Z,96.13
2018-02-12T14:10:42.978Z,90.70
2018-02-12T14:13:10.531Z,92.77
2018-02-12T14:15:38.312Z,84.70
2018-02-12T14:18:06.547Z,88.00
2018-02-12T14:20:34.113Z,95.93
2018-02-12T14:23:01.693Z,93.20
2018-02-12T14:25:29.293Z,91.03
2018-02-12T14:27:56.870Z,95.13
2018-02-12T14:30:24.618Z,103.43
2018-02-12T14:32:52.174Z,106.07
2018-02-12T14:35:19.730Z,105.57
2018-02-12T14:37:47.339Z,104.73
2018-02-12T14:40:14.898Z,114.43
2018-02-12T14:42:42.462Z,112.67
2018-02-12T14:45:10.069Z,112.00
2018-02-12T14:47:37.621Z,113.73
2018-02-12T14:50:05.214Z,119.20
2018-02-12T14:52:32.903Z,117.43
2018-02-12T14:55:00.467Z,118.63
2018-02-12T14:57:28.039Z,119.70
2018-02-12T14:59:55.927Z,128.00
2018-02-12T15:02:23.501Z,129.53
2018-02-12T15:04:51.083Z,124.30
2018-02-12T15:07:18.951Z,122.40
2018-02-12T15:09:46.516Z,122.50
2018-02-12T15:12:14.072Z,115.50
2018-02-12T15:14:41.777Z,127.37
2018-02-12T15:17:09.329Z,121.47
2018-02-12T15:19:36.921Z,114.47
2018-02-12T15:22:04.789Z,136.57
2018-02-12T15:24:32.377Z,117.00
2018-02-12T15:26:59.943Z,122.13
2018-02-12T15:29:27.702Z,121.47
2018-02-12T15:31:55.259Z,122.80
2018-02-12T15:34:22.822Z,119.30
2018-02-12T15:36:50.477Z,128.90
2018-02-12T15:39:18.036Z,124.00
2018-02-12T15:41:46.537Z,136.30
2018-02-12T15:44:14.119Z,168.57
2018-02-12T15:46:41.686Z,139.63
2018-02-12T15:49:09.258Z,126.30
2018-02-12T15:51:37.163Z,124.57
2018-02-12T15:54:04.727Z,123.33
2018-02-12T15:56:32.320Z,109.67
2018-02-12T15:58:59.908Z,117.40
2018-02-12T16:01:27.462Z,94.40
2018-02-12T16:03:55.019Z,96.13
2018-02-12T16:06:22.597Z,83.60
2018-02-12T16:08:51.150Z,65.23
2018-02-12T16:11:18.707Z,59.00
2018-02-12T16:13:46.293Z,61.10
2018-02-12T16:16:13.860Z,56.10
2018-02-12T16:18:41.431Z,54.40
2018-02-12T16:21:09.160Z,53.47
2018-02-12T16:23:36.726Z,44.43
2018-02-12T16:26:04.283Z,45.33
2018-02-12T16:28:31.950Z,54.57
2018-02-12T16:30:59.494Z,42.93
2018-02-12T16:33:27.052Z,41.50
2018-02-12T16:35:54.655Z,59.87
2018-02-12T16:38:22.210Z,69.63
2018-02-12T16:40:49.785Z,71.93
2018-02-12T16:43:17.399Z,53.37
2018-02-12T16:45:44.968Z,45.03
2018-02-12T16:48:12.569Z,42.23
2018-02-12T16:50:40.422Z,46.83
2018-02-12T16:53:07.966Z,56.07
2018-02-12T16:55:35.524Z,55.50
2018-02-12T16:58:03.262Z,44.60
2018-02-12T17:00:30.826Z,45.07
2018-02-12T17:02:58.421Z,44.33
2018-02-12T17:05:26.021Z,42.50
2018-02-12T17:07:53.586Z,40.87
2018-02-12T17:10:21.147Z,444.80
2018-02-12T17:12:48.916Z,49.23
2018-02-12T17:15:16.491Z,40.63
2018-02-12T17:17:44.055Z,40.57
2018-02-12T17:20:11.653Z,43.33
2018-02-12T17:22:39.216Z,42.50
2018-02-12T17:25:06.782Z,44.17
2018-02-12T17:27:34.390Z,57.13
2018-02-12T17:30:01.959Z,46.90
2018-02-12T17:32:29.522Z,44.17
2018-02-12T17:34:57.112Z,41.40
2018-02-12T17:37:26.830Z,40.63
2018-02-12T17:39:54.439Z,33.07
2018-02-12T17:42:22.053Z,38.37
2018-02-12T17:44:49.651Z,37.27
2018-02-12T17:47:17.283Z,54.73
2018-02-12T17:49:44.913Z,51.13
2018-02-12T17:52:12.540Z,59.17
2018-02-12T17:54:40.106Z,52.93
2018-02-12T17:57:07.985Z,51.77
2018-02-12T17:59:35.606Z,47.47
2018-02-12T18:02:03.198Z,57.87
2018-02-12T18:04:30.802Z,65.47
2018-02-12T18:06:58.429Z,53.77
2018-02-12T18:09:25.990Z,42.90
2018-02-12T18:11:53.558Z,44.67
2018-02-12T18:14:21.127Z,46.73
2018-02-12T18:16:48.732Z,41.73
2018-02-12T18:19:16.983Z,44.93
2018-02-12T18:21:44.550Z,34.70
2018-02-12T18:24:12.151Z,39.13
2018-02-12T18:26:39.725Z,42.97
2018-02-12T18:29:07.269Z,42.07
2018-02-12T18:31:35.015Z,47.30
2018-02-12T18:34:02.576Z,48.33
2018-02-12T18:36:30.143Z,49.77
2018-02-12T18:38:57.943Z,56.77
2018-02-12T18:41:25.496Z,59.13
2018-02-12T18:43:53.080Z,66.53
2018-02-12T18:46:20.655Z,60.43
2018-02-12T18:48:48.234Z,57.83
2018-02-12T18:51:15.789Z,56.90
2018-02-12T18:53:43.545Z,68.40
2018-02-12T18:56:11.179Z,64.97
2018-02-12T18:58:38.759Z,60.17
2018-02-12T19:01:06.665Z,75.00
2018-02-12T19:03:34.237Z,71.07
2018-02-12T19:06:01.807Z,64.73
2018-02-12T19:08:29.468Z,71.77
2018-02-12T19:10:57.036Z,67.10
2018-02-12T19:13:24.646Z,65.90
2018-02-12T19:15:52.332Z,71.20
2018-02-12T19:18:19.891Z,65.70
2018-02-12T19:20:47.477Z,65.60
2018-02-12T19:23:15.238Z,72.37
2018-02-12T19:25:42.847Z,66.20
2018-02-12T19:28:10.437Z,88.90
2018-02-12T19:30:38.326Z,104.80
2018-02-12T19:33:05.950Z,109.07
2018-02-12T19:35:33.654Z,122.93
2018-02-12T19:38:01.432Z,105.47
2018-02-12T19:40:29.020Z,106.33
2018-02-12T19:42:56.609Z,103.60
2018-02-12T19:45:24.310Z,102.80
2018-02-12T19:47:51.878Z,130.70
2018-02-12T19:50:19.465Z,118.40
2018-02-12T19:52:47.370Z,122.23
2018-02-12T19:55:14.947Z,126.90
2018-02-12T19:57:42.525Z,132.00
2018-02-12T20:00:10.327Z,137.17
2018-02-12T20:02:37.910Z,144.33
2018-02-12T20:05:05.501Z,146.20
2018-02-12T20:07:33.288Z,137.50
2018-02-12T20:10:00.942Z,140.30
2018-02-12T20:12:28.537Z,144.87
2018-02-12T20:14:56.304Z,152.83
2018-02-12T20:17:23.857Z,150.43
2018-02-12T20:19:51.470Z,152.10
2018-02-12T20:22:19.213Z,138.97
2018-02-12T20:24:46.829Z,119.60
2018-02-12T20:27:14.446Z,94.23
2018-02-12T20:29:42.172Z,89.90
2018-02-12T20:32:09.727Z,92.80
2018-02-12T20:34:37.311Z,86.23
2018-02-12T20:37:04.914Z,81.97
2018-02-12T20:39:32.496Z,85.07
2018-02-12T20:42:00.071Z,70.90
2018-02-12T20:44:27.670Z,72.73
2018-02-12T20:46:55.259Z,78.93
2018-02-12T20:49:22.836Z,82.40
2018-02-12T20:51:50.647Z,90.90
2018-02-12T20:54:18.210Z,91.30
2018-02-12T20:56:45.834Z,104.93
2018-02-12T20:59:13.604Z,106.10
2018-02-12T21:01:41.208Z,84.37
2018-02-12T21:04:08.768Z,102.27
2018-02-12T21:06:36.501Z,103.40
2018-02-12T21:09:04.129Z,102.20
2018-02-12T21:11:31.683Z,88.63
2018-02-12T21:13:59.433Z,103.47
2018-02-12T21:16:26.986Z,118.10
2018-02-12T21:18:54.567Z,113.60
2018-02-12T21:21:22.277Z,103.97
2018-02-12T21:23:49.868Z,98.03
2018-02-12T21:26:17.417Z,99.20
2018-02-12T21:28:45.122Z,104.50
2018-02-12T21:31:12.669Z,115.37
2018-02-12T21:33:40.232Z,113.17
2018-02-12T21:36:08.122Z,100.17
2018-02-12T21:38:35.681Z,112.93
2018-02-12T21:41:03.241Z,107.10
2018-02-12T21:43:31.011Z,122.70
2018-02-12T21:45:58.567Z,125.90
2018-02-12T21:48:26.142Z,120.53
2018-02-12T21:50:53.858Z,111.10
2018-02-12T21:53:21.411Z,92.13
2018-02-12T21:55:48.959Z,91.13
2018-02-12T21:58:16.561Z,99.67
2018-02-12T22:00:44.131Z,88.43
2018-02-12T22:03:11.690Z,68.90
2018-02-12T22:05:39.382Z,64.70
2018-02-12T22:08:06.950Z,64.23
2018-02-12T22:10:34.519Z,62.90
2018-02-12T22:13:02.094Z,62.20
2018-02-12T22:15:29.655Z,59.20
2018-02-12T22:17:57.215Z,55.43
2018-02-12T22:20:24.966Z,53.93
2018-02-12T22:22:52.523Z,64.40
2018-02-12T22:25:20.084Z,61.43
2018-02-12T22:27:47.821Z,66.67
2018-02-12T22:30:15.380Z,49.47
2018-02-12T22:32:42.942Z,50.37
2018-02-12T22:35:10.647Z,62.37
2018-02-12T22:37:38.206Z,50.10
2018-02-12T22:40:05.765Z,65.20
2018-02-12T22:42:33.500Z,61.57
2018-02-12T22:45:01.073Z,62.77
2018-02-12T22:47:28.663Z,59.33
2018-02-12T22:49:56.405Z,56.43
2018-02-12T22:52:23.966Z,39.93
2018-02-12T22:54:51.521Z,56.83
2018-02-12T22:57:19.261Z,59.93
2018-02-12T22:59:46.808Z,53.07
2018-02-12T23:02:14.374Z,51.70
2018-02-12T23:04:42.064Z,44.03
2018-02-12T23:07:09.634Z,43.03
2018-02-12T23:09:37.199Z,42.80
2018-02-12T23:12:04.760Z,38.00
2018-02-12T23:14:32.309Z,35.53
2018-02-12T23:17:05.434Z,31.43
2018-02-12T23:19:32.995Z,31.70
2018-02-12T23:22:00.545Z,32.10
2018-02-12T23:24:28.287Z,28.93
2018-02-12T23:26:55.843Z,30.53
2018-02-12T23:29:23.399Z,37.10
2018-02-12T23:31:51.996Z,32.03
2018-02-12T23:34:19.543Z,34.10
2018-02-12T23:36:47.091Z,42.73
2018-02-12T23:39:14.682Z,39.27
2018-02-12T23:41:42.231Z,36.13
2018-02-12T23:44:09.793Z,42.53
2018-02-12T23:46:37.478Z,48.83
2018-02-12T23:49:05.026Z,48.70
2018-02-12T23:51:32.580Z,39.40
2018-02-12T23:54:00.462Z,43.83
2018-02-12T23:56:28.014Z,41.33
2018-02-12T23:58:55.564Z,46.33
